createdAt,value
2023-03-20T00:02:22.813Z,10.30
2023-03-20T00:04:49.831Z,10.40
2023-03-20T00:07:16.694Z,10.40
2023-03-20T00:09:43.518Z,10.30
2023-03-20T00:12:24.215Z,10.30
2023-03-20T00:14:51.207Z,10.40
2023-03-20T00:17:20.857Z,10.40
2023-03-20T00:19:47.825Z,10.30
2023-03-20T00:22:14.638Z,10.20
2023-03-20T00:24:41.437Z,10.20
2023-03-20T00:27:14.155Z,10.10
2023-03-20T00:29:41.472Z,10.10
2023-03-20T00:32:15.301Z,10.10
2023-03-20T00:34:42.388Z,10.10
2023-03-20T00:37:11.461Z,10.10
2023-03-20T00:39:38.321Z,10.10
2023-03-20T00:42:10.612Z,10.10
2023-03-20T00:44:48.634Z,10.10
2023-03-20T00:47:23.326Z,10.10
2023-03-20T00:49:54.188Z,10.10
2023-03-20T00:52:23.014Z,10.10
2023-03-20T00:54:51.945Z,10.10
2023-03-20T00:57:33.425Z,10.10
2023-03-20T01:00:07.233Z,10.20
2023-03-20T01:02:34.554Z,10.10
2023-03-20T01:05:03.795Z,10.10
2023-03-20T01:07:30.599Z,10.10
2023-03-20T01:09:57.431Z,10.10
2023-03-20T01:12:24.922Z,10.00
2023-03-20T01:14:57.992Z,10.00
2023-03-20T01:17:27.318Z,10.00
2023-03-20T01:19:54.493Z,10.00
2023-03-20T01:22:21.655Z,10.10
2023-03-20T01:24:48.611Z,10.10
2023-03-20T01:27:19.623Z,10.10
2023-03-20T01:29:46.981Z,10.00
2023-03-20T01:32:19.645Z,10.00
2023-03-20T01:34:51.394Z,10.00
2023-03-20T01:37:26.098Z,9.90
2023-03-20T01:39:53.735Z,9.90
2023-03-20T01:42:20.605Z,9.80
2023-03-20T01:44:48.559Z,9.80
2023-03-20T01:47:19.738Z,9.80
2023-03-20T01:50:23.850Z,9.80
2023-03-20T01:52:58.879Z,9.80
2023-03-20T01:55:27.836Z,9.70
2023-03-20T01:58:06.906Z,9.70
2023-03-20T02:00:36.476Z,9.70
2023-03-20T02:03:08.502Z,9.70
2023-03-20T02:05:57.376Z,9.60
2023-03-20T02:08:30.633Z,9.60
2023-03-20T02:11:04.070Z,9.60
2023-03-20T02:13:32.828Z,9.60
2023-03-20T02:16:05.645Z,9.60
2023-03-20T02:18:57.321Z,9.60
2023-03-20T02:21:33.332Z,9.60
2023-03-20T02:24:45.633Z,9.60
2023-03-20T02:27:34.745Z,9.50
2023-03-20T02:30:19.823Z,9.50
2023-03-20T02:33:41.322Z,9.50
2023-03-20T02:36:22.639Z,9.50
2023-03-20T02:38:56.671Z,9.50
2023-03-20T02:41:45.127Z,9.50
2023-03-20T02:44:33.613Z,9.50
2023-03-20T02:47:14.351Z,9.50
2023-03-20T02:50:24.425Z,9.50
2023-03-20T02:53:18.731Z,9.40
2023-03-20T02:56:18.148Z,9.30
2023-03-20T02:59:04.822Z,9.40
2023-03-20T03:01:39.866Z,9.30
2023-03-20T03:04:17.085Z,9.30
2023-03-20T03:06:49.253Z,9.20
2023-03-20T03:09:25.497Z,9.20
2023-03-20T03:11:59.414Z,9.20
2023-03-20T03:14:46.515Z,9.20
2023-03-20T03:17:19.933Z,9.20
2023-03-20T03:19:52.597Z,9.20
2023-03-20T03:22:20.039Z,9.20
2023-03-20T03:24:50.967Z,9.20
2023-03-20T03:27:31.683Z,9.20
2023-03-20T03:30:10.459Z,9.10
2023-03-20T03:33:20.037Z,9.10
2023-03-20T03:35:49.857Z,9.10
2023-03-20T03:38:44.612Z,9.00
2023-03-20T03:41:33.577Z,9.00
2023-03-20T03:44:22.132Z,9.00
2023-03-20T03:47:16.772Z,8.90
2023-03-20T03:49:52.863Z,9.00
2023-03-20T03:52:26.073Z,8.90
2023-03-20T03:55:02.980Z,9.00
2023-03-20T03:57:46.653Z,8.90
2023-03-20T04:00:21.783Z,8.90
2023-03-20T04:02:57.388Z,8.90
2023-03-20T04:05:31.418Z,8.90
2023-03-20T04:08:03.448Z,8.80
2023-03-20T04:10:30.332Z,8.90
2023-03-20T04:12:57.498Z,8.80
2023-03-20T04:15:24.544Z,8.80
2023-03-20T04:17:51.302Z,8.90
2023-03-20T04:20:18.456Z,8.90
2023-03-20T04:22:46.966Z,8.90
2023-03-20T04:25:26.557Z,8.80
2023-03-20T04:27:55.620Z,8.80
2023-03-20T04:30:33.973Z,8.90
2023-03-20T04:33:14.198Z,8.80
2023-03-20T04:35:52.598Z,8.80
2023-03-20T04:38:20.711Z,8.80
2023-03-20T04:40:49.035Z,8.80
2023-03-20T04:43:16.566Z,8.90
2023-03-20T04:45:43.548Z,8.90
2023-03-20T04:48:10.822Z,8.80
2023-03-20T04:50:38.233Z,8.80
2023-03-20T04:53:05.857Z,8.90
2023-03-20T04:55:33.522Z,8.80
2023-03-20T04:58:00.464Z,8.90
2023-03-20T05:00:29.022Z,8.80
2023-03-20T05:02:55.958Z,8.80
2023-03-20T05:05:23.707Z,8.80
2023-03-20T05:07:52.356Z,8.90
2023-03-20T05:10:34.508Z,8.80
2023-03-20T05:13:27.411Z,8.90
2023-03-20T05:16:23.501Z,8.90
2023-03-20T05:18:58.792Z,8.80
2023-03-20T05:21:39.122Z,8.90
2023-03-20T05:24:12.472Z,8.90
2023-03-20T05:26:57.278Z,8.80
2023-03-20T05:29:50.255Z,8.80
2023-03-20T05:32:32.126Z,8.80
2023-03-20T05:35:09.088Z,8.80
2023-03-20T05:37:53.016Z,8.80
2023-03-20T05:40:31.071Z,8.80
2023-03-20T05:43:16.693Z,8.80
2023-03-20T05:46:09.864Z,8.80
2023-03-20T05:49:12.154Z,8.80
2023-03-20T05:52:02.570Z,8.80
2023-03-20T05:54:38.009Z,8.80
2023-03-20T05:57:17.623Z,8.80
2023-03-20T06:00:14.448Z,8.80
2023-03-20T06:02:51.745Z,8.80
2023-03-20T06:05:38.097Z,8.80
2023-03-20T06:08:05.622Z,8.70
2023-03-20T06:10:32.480Z,8.80
2023-03-20T06:13:01.219Z,8.70
2023-03-20T06:15:29.321Z,8.80
2023-03-20T06:18:03.907Z,8.80
2023-03-20T06:20:31.542Z,8.80
2023-03-20T06:23:01.421Z,8.80
2023-03-20T06:25:28.315Z,8.80
2023-03-20T06:27:55.188Z,8.80
2023-03-20T06:30:22.498Z,8.80
2023-03-20T06:32:50.607Z,8.80
2023-03-20T06:35:18.937Z,8.90
2023-03-20T06:37:48.522Z,8.90
2023-03-20T06:40:22.417Z,8.80
2023-03-20T06:42:49.324Z,8.80
2023-03-20T06:45:17.478Z,8.80
2023-03-20T06:47:56.982Z,8.80
2023-03-20T06:50:24.041Z,8.80
2023-03-20T06:52:52.318Z,8.90
2023-03-20T06:55:38.984Z,8.80
2023-03-20T06:58:06.458Z,8.80
2023-03-20T07:00:34.981Z,8.80
2023-03-20T07:03:04.968Z,8.80
2023-03-20T07:05:32.568Z,8.80
2023-03-20T07:08:01.027Z,8.80
2023-03-20T07:10:28.421Z,8.90
2023-03-20T07:12:56.662Z,8.80
2023-03-20T07:15:23.528Z,8.80
2023-03-20T07:17:50.666Z,8.80
2023-03-20T07:20:17.609Z,8.80
2023-03-20T07:22:48.090Z,8.90
2023-03-20T07:25:41.544Z,8.80
2023-03-20T07:28:08.918Z,8.90
2023-03-20T07:30:38.213Z,8.90
2023-03-20T07:33:06.296Z,9.00
2023-03-20T07:35:34.586Z,9.00
2023-03-20T07:38:02.055Z,9.10
2023-03-20T07:40:29.053Z,9.00
2023-03-20T07:43:01.133Z,9.10
2023-03-20T07:45:46.668Z,9.10
2023-03-20T07:48:13.598Z,9.00
2023-03-20T07:50:40.637Z,9.10
2023-03-20T07:53:07.899Z,9.10
2023-03-20T07:55:34.916Z,9.20
2023-03-20T07:58:02.572Z,9.20
2023-03-20T08:00:29.813Z,9.20
2023-03-20T08:02:57.015Z,9.20
2023-03-20T08:05:24.973Z,9.30
2023-03-20T08:07:52.142Z,9.40
2023-03-20T08:10:19.291Z,9.40
2023-03-20T08:12:46.205Z,9.50
2023-03-20T08:15:13.170Z,9.60
2023-03-20T08:17:44.696Z,9.60
2023-03-20T08:20:14.267Z,9.60
2023-03-20T08:22:42.603Z,9.50
2023-03-20T08:25:10.166Z,9.50
2023-03-20T08:27:38.587Z,9.50
2023-03-20T08:30:07.000Z,9.60
2023-03-20T08:32:33.858Z,9.60
2023-03-20T08:35:00.851Z,9.70
2023-03-20T08:37:28.643Z,9.70
2023-03-20T08:39:55.418Z,9.80
2023-03-20T08:42:22.292Z,9.80
2023-03-20T08:44:49.168Z,9.90
2023-03-20T08:47:16.194Z,9.90
2023-03-20T08:49:43.663Z,9.90
2023-03-20T08:52:10.485Z,9.90
2023-03-20T08:54:37.382Z,9.80
2023-03-20T08:57:04.603Z,9.70
2023-03-20T08:59:31.640Z,9.80
2023-03-20T09:01:58.666Z,9.70
2023-03-20T09:04:25.792Z,9.70
2023-03-20T09:06:52.639Z,9.80
2023-03-20T09:09:21.517Z,9.70
2023-03-20T09:11:48.423Z,9.70
2023-03-20T09:14:16.006Z,9.80
2023-03-20T09:16:42.864Z,9.80
2023-03-20T09:19:09.840Z,9.80
2023-03-20T09:21:36.686Z,9.80
2023-03-20T09:24:03.729Z,9.80
2023-03-20T09:26:30.698Z,9.80
2023-03-20T09:28:57.585Z,9.70
2023-03-20T09:31:24.576Z,9.70
2023-03-20T09:33:51.427Z,9.90
2023-03-20T09:36:18.355Z,9.90
2023-03-20T09:38:45.186Z,9.90
2023-03-20T09:41:22.624Z,9.90
2023-03-20T09:44:08.287Z,9.90
2023-03-20T09:47:21.754Z,9.90
2023-03-20T09:49:55.983Z,10.00
2023-03-20T09:52:34.500Z,10.10
2023-03-20T09:55:14.327Z,10.10
2023-03-20T09:57:54.264Z,10.10
2023-03-20T10:00:27.456Z,10.30
2023-03-20T10:03:03.117Z,10.30
2023-03-20T10:05:38.519Z,10.40
2023-03-20T10:08:14.368Z,10.30
2023-03-20T10:11:24.573Z,10.20
2023-03-20T10:14:06.365Z,10.40
2023-03-20T10:16:54.122Z,10.50
2023-03-20T10:19:28.958Z,10.50
2023-03-20T10:22:25.186Z,10.40
2023-03-20T10:25:13.157Z,10.60
2023-03-20T10:27:47.340Z,10.60
2023-03-20T10:30:33.797Z,10.40
2023-03-20T10:33:34.966Z,10.50
2023-03-20T10:36:19.721Z,10.60
2023-03-20T10:39:18.978Z,10.50
2023-03-20T10:41:57.633Z,10.60
2023-03-20T10:44:39.224Z,10.60
2023-03-20T10:47:11.999Z,10.70
2023-03-20T10:49:55.686Z,10.40
2023-03-20T10:52:35.650Z,10.40
2023-03-20T10:55:23.071Z,10.40
2023-03-20T10:58:03.262Z,10.30
2023-03-20T11:00:30.182Z,10.30
2023-03-20T11:02:57.131Z,10.30
2023-03-20T11:05:36.866Z,10.30
2023-03-20T11:08:13.079Z,10.40
2023-03-20T11:10:43.184Z,10.40
2023-03-20T11:13:39.441Z,10.40
2023-03-20T11:16:33.727Z,10.40
2023-03-20T11:19:11.540Z,10.40
2023-03-20T11:21:51.843Z,10.40
2023-03-20T11:25:02.864Z,10.50
2023-03-20T11:27:33.079Z,10.40
2023-03-20T11:30:05.754Z,10.30
2023-03-20T11:32:40.636Z,10.30
2023-03-20T11:35:28.294Z,10.40
2023-03-20T11:38:10.742Z,10.40
2023-03-20T11:40:38.704Z,10.40
2023-03-20T11:43:27.590Z,10.50
2023-03-20T11:46:01.336Z,10.50
2023-03-20T11:48:45.711Z,10.70
2023-03-20T11:51:21.363Z,10.70
2023-03-20T11:53:48.367Z,10.80
2023-03-20T11:56:24.809Z,10.90
2023-03-20T11:59:01.748Z,10.90
2023-03-20T12:01:37.334Z,10.80
2023-03-20T12:04:13.553Z,10.70
2023-03-20T12:07:02.765Z,10.80
2023-03-20T12:10:02.629Z,10.80
2023-03-20T12:12:41.174Z,10.80
2023-03-20T12:15:28.147Z,10.70
2023-03-20T12:18:06.570Z,10.70
2023-03-20T12:21:03.140Z,10.70
2023-03-20T12:23:52.210Z,10.70
2023-03-20T12:26:55.321Z,10.70
2023-03-20T12:29:43.253Z,10.60
2023-03-20T12:32:44.070Z,10.60
2023-03-20T12:35:26.289Z,10.70
2023-03-20T12:37:53.304Z,10.60
2023-03-20T12:40:37.259Z,10.60
2023-03-20T12:43:22.350Z,10.70
2023-03-20T12:46:25.561Z,10.80
2023-03-20T12:49:39.844Z,10.60
2023-03-20T12:52:22.258Z,10.60
2023-03-20T12:55:29.663Z,10.60
2023-03-20T12:58:17.089Z,10.60
2023-03-20T13:01:21.694Z,10.60
2023-03-20T13:03:48.552Z,10.70
2023-03-20T13:06:32.195Z,10.80
2023-03-20T13:10:05.634Z,10.60
2023-03-20T13:13:00.028Z,10.70
2023-03-20T13:15:48.056Z,10.60
2023-03-20T13:18:44.776Z,10.60
2023-03-20T13:21:29.433Z,10.60
2023-03-20T13:24:29.865Z,10.70
2023-03-20T13:27:25.791Z,10.60
2023-03-20T13:30:14.878Z,10.50
2023-03-20T13:32:53.416Z,10.50
2023-03-20T13:35:40.113Z,10.50
2023-03-20T13:38:22.443Z,10.50
2023-03-20T13:41:00.649Z,10.50
2023-03-20T13:43:58.686Z,10.50
2023-03-20T13:46:35.269Z,10.60
2023-03-20T13:49:19.407Z,10.50
2023-03-20T13:52:24.097Z,10.40
2023-03-20T13:55:21.233Z,10.40
2023-03-20T13:58:24.053Z,10.40
2023-03-20T14:01:07.373Z,10.40
2023-03-20T14:03:40.589Z,10.40
2023-03-20T14:06:44.090Z,10.40
2023-03-20T14:09:33.214Z,10.50
2023-03-20T14:12:07.350Z,10.60
2023-03-20T14:14:58.312Z,10.40
2023-03-20T14:17:29.408Z,10.50
2023-03-20T14:19:57.992Z,10.50
2023-03-20T14:22:38.665Z,10.40
2023-03-20T14:25:23.642Z,10.40
2023-03-20T14:27:58.523Z,10.40
2023-03-20T14:30:31.478Z,10.40
2023-03-20T14:33:23.670Z,10.40
2023-03-20T14:36:12.517Z,10.40
2023-03-20T14:39:12.976Z,10.50
2023-03-20T14:41:59.661Z,10.40
2023-03-20T14:45:14.136Z,10.40
2023-03-20T14:48:18.642Z,10.50
2023-03-20T14:51:07.035Z,10.30
2023-03-20T14:53:34.097Z,10.30
2023-03-20T14:56:12.927Z,10.40
2023-03-20T14:58:55.425Z,10.40
2023-03-20T15:01:22.185Z,10.40
2023-03-20T15:04:05.051Z,10.40
2023-03-20T15:06:34.614Z,10.50
2023-03-20T15:09:13.061Z,10.50
2023-03-20T15:11:43.339Z,10.50
2023-03-20T15:14:15.076Z,10.40
2023-03-20T15:16:45.452Z,10.50
2023-03-20T15:19:19.611Z,10.40
2023-03-20T15:21:48.110Z,10.50
2023-03-20T15:24:23.331Z,10.50
2023-03-20T15:26:58.594Z,10.40
2023-03-20T15:29:26.733Z,10.50
2023-03-20T15:32:12.897Z,10.40
2023-03-20T15:34:43.041Z,10.40
2023-03-20T15:37:17.023Z,10.50
2023-03-20T15:39:48.551Z,10.40
2023-03-20T15:42:20.225Z,10.40
2023-03-20T15:44:50.182Z,10.40
2023-03-20T15:47:22.162Z,10.40
2023-03-20T15:49:51.726Z,10.40
2023-03-20T15:52:36.471Z,10.40
2023-03-20T15:55:11.600Z,10.40
2023-03-20T15:57:41.591Z,10.50
2023-03-20T16:00:23.935Z,10.50
2023-03-20T16:02:51.165Z,10.50
2023-03-20T16:05:22.078Z,10.50
2023-03-20T16:07:49.264Z,10.50
2023-03-20T16:10:20.166Z,10.50
2023-03-20T16:12:54.650Z,10.50
2023-03-20T16:15:27.475Z,10.60
2023-03-20T16:17:59.125Z,10.50
2023-03-20T16:20:52.871Z,10.50
2023-03-20T16:23:58.749Z,10.50
2023-03-20T16:26:27.452Z,10.50
2023-03-20T16:29:05.111Z,10.40
2023-03-20T16:31:36.018Z,10.50
2023-03-20T16:34:23.920Z,10.50
2023-03-20T16:36:59.543Z,10.50
2023-03-20T16:39:30.633Z,10.50
2023-03-20T16:42:20.786Z,10.50
2023-03-20T16:44:52.994Z,10.50
2023-03-20T16:47:39.102Z,10.50
2023-03-20T16:50:23.193Z,10.50
2023-03-20T16:52:57.099Z,10.60
2023-03-20T16:55:29.594Z,10.60
2023-03-20T16:58:04.743Z,10.60
2023-03-20T17:00:53.639Z,10.50
2023-03-20T17:03:29.531Z,10.50
2023-03-20T17:06:27.374Z,10.60
2023-03-20T17:09:20.856Z,10.60
2023-03-20T17:11:57.832Z,10.50
2023-03-20T17:14:25.092Z,10.50
2023-03-20T17:16:54.902Z,10.50
2023-03-20T17:19:22.066Z,10.50
2023-03-20T17:21:49.152Z,10.50
2023-03-20T17:24:17.380Z,10.50
2023-03-20T17:26:55.775Z,10.50
2023-03-20T17:29:22.670Z,10.50
2023-03-20T17:31:49.573Z,10.50
2023-03-20T17:34:16.553Z,10.50
2023-03-20T17:36:43.908Z,10.50
2023-03-20T17:39:19.605Z,10.50
2023-03-20T17:41:47.460Z,10.50
2023-03-20T17:44:14.430Z,10.50
2023-03-20T17:46:56.741Z,10.50
2023-03-20T17:49:27.228Z,10.50
2023-03-20T17:51:55.259Z,10.50
2023-03-20T17:54:22.085Z,10.60
2023-03-20T17:56:48.928Z,10.60
2023-03-20T17:59:15.832Z,10.60
2023-03-20T18:01:43.039Z,10.60
2023-03-20T18:04:09.935Z,10.60
2023-03-20T18:06:37.821Z,10.60
2023-03-20T18:09:05.872Z,10.60
2023-03-20T18:11:32.768Z,10.60
2023-03-20T18:14:01.883Z,10.50
2023-03-20T18:16:28.788Z,10.60
2023-03-20T18:18:56.104Z,10.60
2023-03-20T18:21:23.093Z,10.60
2023-03-20T18:23:49.999Z,10.60
2023-03-20T18:26:24.742Z,10.70
2023-03-20T18:28:55.158Z,10.70
2023-03-20T18:31:22.247Z,10.70
2023-03-20T18:33:52.397Z,10.60
2023-03-20T18:36:24.586Z,10.60
2023-03-20T18:38:52.561Z,10.60
2023-03-20T18:41:20.611Z,10.60
2023-03-20T18:43:48.133Z,10.60
2023-03-20T18:46:17.820Z,10.70
2023-03-20T18:48:46.476Z,10.70
2023-03-20T18:51:14.400Z,10.70
2023-03-20T18:53:42.613Z,10.70
2023-03-20T18:56:19.901Z,10.70
2023-03-20T18:58:48.641Z,10.70
2023-03-20T19:01:16.438Z,10.70
2023-03-20T19:03:45.612Z,10.80
2023-03-20T19:06:23.274Z,10.80
2023-03-20T19:08:51.936Z,10.80
2023-03-20T19:11:21.520Z,10.80
2023-03-20T19:13:53.584Z,10.80
2023-03-20T19:16:35.957Z,10.80
2023-03-20T19:19:05.942Z,10.80
2023-03-20T19:21:34.878Z,10.80
2023-03-20T19:24:04.965Z,10.80
2023-03-20T19:26:34.664Z,10.90
2023-03-20T19:29:03.337Z,10.90
2023-03-20T19:31:30.379Z,10.80
2023-03-20T19:33:57.395Z,10.90
2023-03-20T19:36:35.625Z,10.90
2023-03-20T19:39:05.793Z,10.90
2023-03-20T19:41:32.980Z,10.90
2023-03-20T19:44:01.314Z,10.90
2023-03-20T19:46:39.645Z,10.90
2023-03-20T19:49:20.930Z,10.90
2023-03-20T19:51:49.216Z,10.90
2023-03-20T19:54:16.553Z,10.90
2023-03-20T19:56:43.471Z,10.90
2023-03-20T19:59:10.410Z,10.90
2023-03-20T20:01:37.389Z,10.90
2023-03-20T20:04:04.305Z,10.90
2023-03-20T20:06:33.024Z,11.00
2023-03-20T20:09:01.579Z,11.00
2023-03-20T20:11:28.879Z,11.00
2023-03-20T20:14:14.625Z,10.90
2023-03-20T20:16:43.099Z,10.90
2023-03-20T20:19:10.567Z,10.90
2023-03-20T20:24:24.838Z,10.90
2023-03-20T20:27:03.095Z,10.90
2023-03-20T20:29:39.804Z,10.90
2023-03-20T20:32:06.734Z,10.90
2023-03-20T20:37:59.873Z,10.90
2023-03-20T20:40:14.739Z,11.00
2023-03-20T20:42:43.204Z,11.00
2023-03-20T20:45:11.917Z,10.90
2023-03-20T20:47:45.206Z,11.00
2023-03-20T20:50:16.314Z,11.00
2023-03-20T20:52:43.695Z,11.00
2023-03-20T20:55:22.599Z,11.00
2023-03-20T20:57:52.829Z,11.00
2023-03-20T21:00:27.387Z,11.00
2023-03-20T21:02:56.407Z,11.00
2023-03-20T21:05:23.355Z,11.00
2023-03-20T21:07:52.310Z,11.00
2023-03-20T21:10:21.495Z,11.00
2023-03-20T21:12:59.035Z,11.00
2023-03-20T21:15:27.565Z,11.10
2023-03-20T21:18:01.082Z,11.10
2023-03-20T21:20:32.836Z,11.10
2023-03-20T21:22:59.923Z,11.10
2023-03-20T21:25:47.099Z,11.10
2023-03-20T21:28:15.190Z,11.10
2023-03-20T21:31:09.084Z,11.10
2023-03-20T21:33:30.717Z,11.00
2023-03-20T21:35:57.647Z,11.00
2023-03-20T21:41:13.251Z,11.00
2023-03-20T21:43:40.889Z,11.00
2023-03-20T21:55:06.109Z,11.00
2023-03-20T22:02:57.094Z,11.10
2023-03-20T22:06:19.505Z,11.00
2023-03-20T22:11:44.220Z,10.90
2023-03-20T22:17:33.197Z,11.00
2023-03-20T22:34:09.682Z,10.90
2023-03-20T22:36:56.111Z,10.90
2023-03-20T22:42:22.269Z,11.00
2023-03-20T22:44:58.903Z,11.00
2023-03-20T22:47:13.188Z,11.10
2023-03-20T22:49:40.114Z,11.10
2023-03-20T22:52:24.322Z,11.00
2023-03-20T22:54:51.708Z,11.00
2023-03-20T22:57:18.594Z,11.00
2023-03-20T22:59:45.353Z,11.00
2023-03-20T23:02:12.167Z,10.90
2023-03-20T23:04:39.123Z,10.90
2023-03-20T23:07:05.935Z,10.90
2023-03-20T23:09:32.763Z,10.90
2023-03-20T23:11:59.577Z,10.90
2023-03-20T23:14:28.437Z,10.80
2023-03-20T23:16:57.541Z,10.90
2023-03-20T23:19:25.405Z,10.90
2023-03-20T23:21:52.256Z,10.90
2023-03-20T23:24:20.937Z,10.90
2023-03-20T23:26:47.790Z,10.80
2023-03-20T23:29:14.646Z,10.90
2023-03-20T23:31:41.478Z,10.90
2023-03-20T23:34:08.254Z,10.80
2023-03-20T23:36:37.161Z,10.90
2023-03-20T23:39:10.880Z,10.80
2023-03-20T23:44:25.127Z,10.80
2023-03-20T23:46:52.070Z,10.80
2023-03-20T23:49:18.891Z,10.80
2023-03-20T23:51:45.863Z,10.90
2023-03-20T23:54:13.436Z,10.90
2023-03-20T23:56:40.678Z,10.80
2023-03-20T23:59:20.476Z,10.80
